Time;durP1;ratioP1;P1;durP2;ratioP2;P2;SDS_P1;SDS_P2;PMS_P1;PMS_P2;Temp;Humidity;BMP_temperature;BMP_pressure;BME280_temperature;BME280_humidity;BME280_pressure;Samples;Min_cycle;Max_cycle;Signal;HPM_P1;HPM_P2
2024/02/23 00:03:01;;;;;;;;;;;6.60;99.90;;;;;;21343874;27;20022;-78
2024/02/23 00:13:02;;;;;;;;;;;6.50;99.90;;;;;;21337759;27;19957;-77
2024/02/23 00:23:03;;;;;;;;;;;6.50;99.90;;;;;;21343050;27;19918;-78
2024/02/23 00:33:03;;;;;;;;;;;5.80;99.90;;;;;;21341704;27;20362;-77
2024/02/23 00:43:04;;;;;;;;;;;5.40;99.90;;;;;;21343338;27;20326;-77
2024/02/23 00:53:05;;;;;;;;;;;5.00;99.90;;;;;;21332361;27;19984;-77
2024/02/23 01:03:05;;;;;;;;;;;4.50;99.90;;;;;;21332208;27;19917;-77
2024/02/23 01:13:06;;;;;;;;;;;4.60;99.90;;;;;;21316429;27;19994;-78
2024/02/23 01:23:07;;;;;;;;;;;4.70;99.90;;;;;;21334368;27;19922;-78
2024/02/23 01:33:08;;;;;;;;;;;4.70;99.90;;;;;;21329038;27;20397;-78
2024/02/23 01:43:09;;;;;;;;;;;4.50;99.90;;;;;;21338298;27;19911;-77
2024/02/23 01:53:10;;;;;;;;;;;4.60;99.90;;;;;;21337557;27;19964;-78
2024/02/23 02:03:11;;;;;;;;;;;4.40;99.90;;;;;;21334826;27;19918;-77
2024/02/23 02:13:11;;;;;;;;;;;4.30;99.90;;;;;;21340746;27;19915;-77
2024/02/23 02:23:13;;;;;;;;;;;4.20;99.90;;;;;;21343516;27;19911;-78
2024/02/23 02:33:13;;;;;;;;;;;4.20;99.90;;;;;;21333077;27;20406;-78
2024/02/23 02:43:14;;;;;;;;;;;4.30;99.90;;;;;;21335745;27;19918;-77
2024/02/23 02:53:15;;;;;;;;;;;4.30;99.90;;;;;;21327313;27;20387;-77
2024/02/23 03:03:16;;;;;;;;;;;4.20;99.90;;;;;;21307861;27;19911;-78
2024/02/23 03:13:16;;;;;;;;;;;4.20;99.90;;;;;;21331480;27;19923;-78
2024/02/23 03:23:17;;;;;;;;;;;4.20;99.90;;;;;;21340019;27;20660;-78
2024/02/23 03:33:17;;;;;;;;;;;4.10;99.90;;;;;;21342088;27;19955;-78
2024/02/23 03:43:18;;;;;;;;;;;4.00;99.90;;;;;;21346297;27;20347;-77
2024/02/23 03:53:19;;;;;;;;;;;4.10;99.90;;;;;;21354703;27;19918;-77
2024/02/23 04:03:19;;;;;;;;;;;4.00;99.90;;;;;;21355329;27;19911;-78
2024/02/23 04:13:21;;;;;;;;;;;3.90;99.90;;;;;;21352682;27;19923;-78
2024/02/23 04:23:21;;;;;;;;;;;3.80;99.90;;;;;;21352676;27;20336;-76
2024/02/23 04:33:22;;;;;;;;;;;3.90;99.90;;;;;;21348330;27;19911;-78
2024/02/23 04:43:23;;;;;;;;;;;4.00;99.90;;;;;;21353351;27;19918;-78
2024/02/23 04:53:24;;;;;;;;;;;4.00;99.90;;;;;;21348088;27;20301;-78
2024/02/23 05:03:25;;;;;;;;;;;4.00;99.90;;;;;;21326728;27;19911;-76
2024/02/23 05:13:25;;;;;;;;;;;4.00;99.90;;;;;;21293304;27;19958;-76
2024/02/23 05:23:26;;;;;;;;;;;4.10;99.90;;;;;;21329254;27;20426;-77
2024/02/23 05:33:27;;;;;;;;;;;3.90;99.90;;;;;;21326883;27;20005;-76
2024/02/23 05:43:28;;;;;;;;;;;3.90;99.90;;;;;;21326232;27;20324;-76
2024/02/23 05:53:32;;;;;;;;;;;3.90;99.90;;;;;;21330053;27;19912;-76
2024/02/23 06:03:33;;;;;;;;;;;3.80;99.90;;;;;;21317653;27;19915;-76
2024/02/23 06:13:33;;;;;;;;;;;3.70;99.90;;;;;;21236407;27;20352;-78
2024/02/23 06:23:34;;;;;;;;;;;3.30;99.90;;;;;;21241420;27;20392;-76
2024/02/23 06:33:35;;;;;;;;;;;3.10;99.90;;;;;;21232896;28;19911;-77
2024/02/23 06:43:35;;;;;;;;;;;2.80;99.90;;;;;;21241711;27;20515;-76
2024/02/23 06:53:37;;;;;;;;;;;2.60;99.90;;;;;;21239622;27;19912;-76
2024/02/23 07:03:39;;;;;;;;;;;2.40;99.90;;;;;;21235296;27;20010;-76
2024/02/23 07:13:42;;;;;;;;;;;2.10;99.90;;;;;;21340731;27;19922;-76
2024/02/23 07:23:43;;;;;;;;;;;2.00;99.90;;;;;;21334056;27;19915;-77
2024/02/23 07:33:44;;;;;;;;;;;1.90;99.90;;;;;;21340774;27;19999;-77
2024/02/23 07:43:44;;;;;;;;;;;2.10;99.90;;;;;;21326162;27;19925;-77
2024/02/23 07:53:45;;;;;;;;;;;2.90;99.90;;;;;;21292462;27;20358;-77
2024/02/23 08:03:46;;;;;;;;;;;3.20;99.90;;;;;;21293964;27;19923;-77
2024/02/23 08:13:46;;;;;;;;;;;4.10;99.90;;;;;;21293926;27;19916;-77
2024/02/23 08:23:47;;;;;;;;;;;4.00;99.90;;;;;;21307443;27;19919;-77
2024/02/23 08:33:48;;;;;;;;;;;6.10;99.90;;;;;;21312467;27;19958;-77
2024/02/23 08:43:49;;;;;;;;;;;6.90;99.90;;;;;;21319113;27;19919;-77
2024/02/23 08:53:50;;;;;;;;;;;8.00;99.90;;;;;;21322035;27;19911;-79
2024/02/23 09:03:51;;;;;;;;;;;9.60;99.90;;;;;;21279449;27;19915;-78
2024/02/23 09:13:51;;;;;;;;;;;11.50;99.90;;;;;;21297374;27;20412;-80
2024/02/23 09:23:52;;;;;;;;;;;11.20;99.90;;;;;;21297254;27;19915;-78
2024/02/23 09:33:53;;;;;;;;;;;10.90;99.90;;;;;;21286645;27;19912;-77
2024/02/23 09:43:55;;;;;;;;;;;9.70;99.90;;;;;;21250394;27;19916;-79
2024/02/23 09:53:57;;;;;;;;;;;9.40;99.90;;;;;;21255130;27;19950;-78
2024/02/23 10:03:58;;;;;;;;;;;9.20;99.90;;;;;;21289676;27;20498;-78
2024/02/23 10:13:59;;;;;;;;;;;10.20;99.90;;;;;;21252623;27;19915;-77
2024/02/23 10:23:59;;;;;;;;;;;10.20;99.90;;;;;;21265136;27;19960;-78
2024/02/23 10:34:02;;;;;;;;;;;10.30;99.90;;;;;;21302454;27;19934;-77
2024/02/23 10:44:03;;;;;;;;;;;9.70;99.90;;;;;;21305285;27;19914;-77
2024/02/23 10:54:04;;;;;;;;;;;9.90;99.90;;;;;;21328039;27;20014;-77
2024/02/23 11:04:05;;;;;;;;;;;9.70;99.90;;;;;;21277562;27;19927;-78
2024/02/23 11:14:09;;;;;;;;;;;10.10;99.90;;;;;;21307681;27;19919;-79
2024/02/23 11:24:15;;;;;;;;;;;10.20;99.90;;;;;;21357673;27;20309;-79
2024/02/23 11:34:21;;;;;;;;;;;10.30;99.90;;;;;;21356799;27;19942;-79
2024/02/23 11:44:22;;;;;;;;;;;10.90;99.90;;;;;;21340637;27;19915;-78
2024/02/23 11:54:23;;;;;;;;;;;10.90;99.90;;;;;;21343372;27;20359;-78
2024/02/23 12:04:23;;;;;;;;;;;10.00;99.90;;;;;;21322244;27;20289;-78
2024/02/23 12:14:24;;;;;;;;;;;11.10;99.90;;;;;;21318627;27;19925;-78
2024/02/23 12:24:27;;;;;;;;;;;11.00;99.90;;;;;;21353320;27;19936;-78
2024/02/23 12:34:28;;;;;;;;;;;10.60;99.90;;;;;;21333307;27;19915;-80
2024/02/23 12:44:29;;;;;;;;;;;10.40;99.90;;;;;;21343210;27;20301;-80
2024/02/23 12:54:29;;;;;;;;;;;10.50;99.90;;;;;;21358814;27;19917;-78
2024/02/23 13:04:30;;;;;;;;;;;10.40;99.90;;;;;;21353934;27;20275;-79
2024/02/23 13:14:31;;;;;;;;;;;12.10;99.90;;;;;;21350443;27;19911;-79
2024/02/23 13:24:31;;;;;;;;;;;10.50;99.90;;;;;;21353261;27;19915;-79
2024/02/23 13:34:32;;;;;;;;;;;10.60;99.90;;;;;;21349592;27;19899;-79
2024/02/23 13:44:33;;;;;;;;;;;10.50;99.90;;;;;;21331407;27;20029;-80
2024/02/23 13:54:33;;;;;;;;;;;11.10;99.90;;;;;;21341324;27;19990;-80
2024/02/23 14:04:35;;;;;;;;;;;10.80;99.90;;;;;;21325335;27;19915;-79
2024/02/23 14:14:36;;;;;;;;;;;10.30;99.90;;;;;;21342628;27;19971;-77
2024/02/23 14:24:36;;;;;;;;;;;11.30;99.90;;;;;;21335796;27;20267;-79
2024/02/23 14:34:37;;;;;;;;;;;12.60;99.90;;;;;;21333322;27;19955;-77
2024/02/23 14:44:38;;;;;;;;;;;12.80;99.90;;;;;;21340176;27;19919;-78
2024/02/23 14:54:38;;;;;;;;;;;13.00;99.90;;;;;;21348194;27;19922;-78
2024/02/23 15:04:39;;;;;;;;;;;13.40;99.90;;;;;;21344387;27;19919;-78
2024/02/23 15:14:40;;;;;;;;;;;11.90;99.90;;;;;;21339558;27;19931;-79
2024/02/23 15:24:42;;;;;;;;;;;11.10;99.90;;;;;;21283908;27;19930;-78
2024/02/23 15:34:42;;;;;;;;;;;10.70;99.90;;;;;;21340080;27;19911;-79
2024/02/23 15:44:43;;;;;;;;;;;10.60;99.90;;;;;;21360819;27;19922;-78
2024/02/23 15:54:44;;;;;;;;;;;10.50;99.90;;;;;;21358556;27;19998;-79
2024/02/23 16:04:44;;;;;;;;;;;9.80;99.90;;;;;;21350830;27;20002;-77
2024/02/23 16:14:45;;;;;;;;;;;9.20;99.90;;;;;;21270872;27;19912;-77
2024/02/23 16:24:46;;;;;;;;;;;8.80;99.90;;;;;;21267200;27;19915;-78
2024/02/23 16:34:47;;;;;;;;;;;8.40;99.90;;;;;;21254184;27;19911;-78
2024/02/23 16:44:47;;;;;;;;;;;8.20;99.90;;;;;;21272232;27;19945;-79
2024/02/23 16:54:48;;;;;;;;;;;8.00;99.90;;;;;;21267937;27;19931;-79
2024/02/23 17:04:48;;;;;;;;;;;7.60;99.90;;;;;;21279189;27;19994;-79
2024/02/23 17:14:49;;;;;;;;;;;7.50;99.90;;;;;;21335706;27;19911;-78
2024/02/23 17:24:50;;;;;;;;;;;7.40;99.90;;;;;;21352959;27;19915;-79
2024/02/23 17:34:51;;;;;;;;;;;6.70;99.90;;;;;;21345939;27;19930;-79
2024/02/23 17:44:51;;;;;;;;;;;6.30;99.90;;;;;;21344028;27;19915;-81
2024/02/23 17:54:52;;;;;;;;;;;5.80;99.90;;;;;;21320175;27;19918;-78
2024/02/23 18:04:53;;;;;;;;;;;5.80;99.90;;;;;;21335587;27;19922;-76
2024/02/23 18:14:53;;;;;;;;;;;5.70;99.90;;;;;;21344136;27;19918;-79
2024/02/23 18:24:56;;;;;;;;;;;5.30;99.90;;;;;;21338338;27;20338;-79
2024/02/23 18:34:56;;;;;;;;;;;5.30;99.90;;;;;;21311072;27;19911;-79
2024/02/23 18:44:57;;;;;;;;;;;5.50;99.90;;;;;;21297064;27;19919;-78
2024/02/23 18:54:58;;;;;;;;;;;5.10;99.90;;;;;;21316690;27;19911;-78
2024/02/23 19:04:59;;;;;;;;;;;5.10;99.90;;;;;;21312846;27;19933;-79
2024/02/23 19:15:00;;;;;;;;;;;5.10;99.90;;;;;;21203129;27;20310;-79
2024/02/23 19:25:00;;;;;;;;;;;5.10;99.90;;;;;;21232397;27;20527;-79
2024/02/23 19:35:01;;;;;;;;;;;4.90;99.90;;;;;;21269365;27;19919;-77
2024/02/23 19:45:03;;;;;;;;;;;4.60;99.90;;;;;;21267201;27;19949;-80
2024/02/23 19:55:04;;;;;;;;;;;4.50;99.90;;;;;;21275774;27;19918;-80
2024/02/23 20:05:05;;;;;;;;;;;4.50;99.90;;;;;;21288100;27;19962;-78
2024/02/23 20:15:05;;;;;;;;;;;4.10;99.90;;;;;;21268113;27;19922;-78
2024/02/23 20:25:06;;;;;;;;;;;4.00;99.90;;;;;;21292153;27;19983;-78
2024/02/23 20:35:09;;;;;;;;;;;3.90;99.90;;;;;;21304890;27;19915;-78
2024/02/23 20:45:09;;;;;;;;;;;3.90;99.90;;;;;;21317288;27;19922;-78
2024/02/23 20:55:10;;;;;;;;;;;3.90;99.90;;;;;;21297020;27;19933;-78
2024/02/23 21:05:11;;;;;;;;;;;3.90;99.90;;;;;;21292272;27;20378;-78
2024/02/23 21:15:11;;;;;;;;;;;3.70;99.90;;;;;;21209599;27;19912;-78
2024/02/23 21:25:12;;;;;;;;;;;3.20;99.90;;;;;;21209165;27;20350;-78
2024/02/23 21:35:13;;;;;;;;;;;3.30;99.90;;;;;;21208436;27;19915;-78
2024/02/23 21:45:13;;;;;;;;;;;3.10;99.90;;;;;;21207248;27;19922;-78
2024/02/23 21:55:15;;;;;;;;;;;3.30;99.90;;;;;;21198660;27;20359;-78
2024/02/23 22:05:15;;;;;;;;;;;3.50;99.90;;;;;;21213072;27;19915;-78
2024/02/23 22:15:16;;;;;;;;;;;3.50;99.90;;;;;;21299451;27;19911;-78
2024/02/23 22:25:17;;;;;;;;;;;3.30;99.90;;;;;;21304276;27;19916;-78
2024/02/23 22:35:19;;;;;;;;;;;3.40;99.90;;;;;;21312032;27;19918;-78
2024/02/23 22:45:19;;;;;;;;;;;3.40;99.90;;;;;;21322572;27;20384;-78
2024/02/23 22:55:20;;;;;;;;;;;3.10;99.90;;;;;;21317535;27;19939;-78
2024/02/23 23:05:24;;;;;;;;;;;2.90;99.90;;;;;;21292533;27;19920;-78
2024/02/23 23:15:24;;;;;;;;;;;2.80;99.90;;;;;;21220266;27;19912;-77
2024/02/23 23:25:25;;;;;;;;;;;2.70;99.90;;;;;;21199956;27;19923;-77
2024/02/23 23:35:26;;;;;;;;;;;2.70;99.90;;;;;;21204538;27;19923;-77
2024/02/23 23:45:26;;;;;;;;;;;2.90;99.90;;;;;;21197132;27;19923;-77
2024/02/23 23:55:27;;;;;;;;;;;2.90;99.90;;;;;;21204157;27;20374;-76
